createdAt,value
2023-06-20T00:01:43.026Z,4.00
2023-06-20T00:04:09.878Z,4.67
2023-06-20T00:06:36.728Z,3.60
2023-06-20T00:09:03.629Z,5.43
2023-06-20T00:11:30.465Z,3.90
2023-06-20T00:13:58.496Z,3.80
2023-06-20T00:16:25.490Z,4.67
2023-06-20T00:18:55.422Z,6.37
2023-06-20T00:21:26.772Z,4.23
2023-06-20T00:23:56.582Z,3.87
2023-06-20T00:26:23.554Z,4.07
2023-06-20T00:28:53.456Z,7.20
2023-06-20T00:31:20.706Z,3.43
2023-06-20T00:33:49.236Z,5.80
2023-06-20T00:36:16.445Z,4.10
2023-06-20T00:38:50.477Z,3.87
2023-06-20T00:41:18.061Z,5.27
2023-06-20T00:43:46.245Z,3.73
2023-06-20T00:46:19.252Z,3.63
2023-06-20T00:48:48.676Z,8.13
2023-06-20T00:51:21.564Z,5.03
2023-06-20T00:53:48.634Z,4.50
2023-06-20T00:56:16.710Z,5.17
2023-06-20T00:58:46.815Z,4.03
2023-06-20T01:01:17.923Z,4.93
2023-06-20T01:03:48.149Z,4.80
2023-06-20T01:06:51.596Z,4.77
2023-06-20T01:09:49.243Z,4.87
2023-06-20T01:12:42.810Z,3.73
2023-06-20T01:15:38.128Z,4.63
2023-06-20T01:18:13.848Z,5.03
2023-06-20T01:20:49.909Z,5.53
2023-06-20T01:23:39.676Z,4.83
2023-06-20T01:26:24.516Z,5.60
2023-06-20T01:29:13.564Z,5.80
2023-06-20T01:31:48.014Z,4.70
2023-06-20T01:34:24.017Z,4.60
2023-06-20T01:36:57.957Z,5.90
2023-06-20T01:39:37.314Z,6.53
2023-06-20T01:42:05.809Z,5.10
2023-06-20T01:44:36.222Z,5.53
2023-06-20T01:47:06.270Z,5.07
2023-06-20T01:49:34.914Z,6.47
2023-06-20T01:52:04.327Z,4.70
2023-06-20T01:54:34.667Z,6.13
2023-06-20T01:57:03.895Z,3.90
2023-06-20T01:59:33.714Z,4.90
2023-06-20T02:02:02.876Z,5.83
2023-06-20T02:04:32.492Z,5.10
2023-06-20T02:07:01.584Z,5.10
2023-06-20T02:09:29.678Z,5.77
2023-06-20T02:12:00.111Z,5.23
2023-06-20T02:14:27.482Z,4.67
2023-06-20T02:17:01.490Z,6.00
2023-06-20T02:19:28.815Z,4.13
2023-06-20T02:21:58.340Z,4.50
2023-06-20T02:24:28.291Z,4.17
2023-06-20T02:26:59.496Z,3.97
2023-06-20T02:29:30.588Z,4.90
2023-06-20T02:32:00.551Z,4.03
2023-06-20T02:34:29.754Z,4.80
2023-06-20T02:36:59.301Z,4.70
2023-06-20T02:39:26.611Z,5.43
2023-06-20T02:41:53.522Z,4.50
2023-06-20T02:44:20.633Z,4.23
2023-06-20T02:47:16.841Z,4.20
2023-06-20T02:50:11.154Z,4.63
2023-06-20T02:52:50.178Z,5.20
2023-06-20T02:55:16.996Z,4.90
2023-06-20T02:57:52.341Z,6.07
2023-06-20T03:00:20.938Z,6.33
2023-06-20T03:02:59.662Z,7.13
2023-06-20T03:05:31.218Z,5.63
2023-06-20T03:07:59.588Z,5.90
2023-06-20T03:10:28.953Z,6.60
2023-06-20T03:12:55.909Z,6.87
2023-06-20T03:15:23.691Z,5.50
2023-06-20T03:17:50.929Z,8.27
2023-06-20T03:20:17.860Z,5.13
2023-06-20T03:22:45.097Z,3.10
2023-06-20T03:25:13.835Z,4.83
2023-06-20T03:27:41.232Z,5.87
2023-06-20T03:30:10.091Z,5.20
2023-06-20T03:32:43.567Z,4.17
2023-06-20T03:35:10.816Z,4.20
2023-06-20T03:37:37.793Z,4.40
2023-06-20T03:40:06.905Z,6.33
2023-06-20T03:42:37.291Z,4.63
2023-06-20T03:45:06.760Z,4.17
2023-06-20T03:47:35.586Z,5.07
2023-06-20T03:50:03.903Z,4.40
2023-06-20T03:52:31.185Z,4.83
2023-06-20T03:54:58.118Z,4.63
2023-06-20T03:57:25.159Z,5.37
2023-06-20T03:59:53.452Z,4.47
2023-06-20T04:02:20.436Z,5.97
2023-06-20T04:04:51.473Z,5.87
2023-06-20T04:07:21.987Z,7.03
2023-06-20T04:09:50.532Z,8.17
2023-06-20T04:12:17.872Z,5.77
2023-06-20T04:14:46.133Z,5.40
2023-06-20T04:17:13.113Z,5.47
2023-06-20T04:19:39.996Z,5.40
2023-06-20T04:22:07.092Z,6.23
2023-06-20T04:24:34.624Z,5.27
2023-06-20T04:27:03.653Z,4.87
2023-06-20T04:29:30.702Z,6.53
2023-06-20T04:31:57.983Z,5.50
2023-06-20T04:34:25.688Z,5.50
2023-06-20T04:36:52.812Z,6.40
2023-06-20T04:39:20.261Z,6.60
2023-06-20T04:41:48.639Z,5.70
2023-06-20T04:44:15.810Z,7.40
2023-06-20T04:46:42.754Z,6.03
2023-06-20T04:49:11.065Z,6.47
2023-06-20T04:51:41.798Z,5.97
2023-06-20T04:54:09.013Z,5.87
2023-06-20T04:56:41.493Z,12.00
2023-06-20T04:59:09.602Z,6.53
2023-06-20T05:01:36.660Z,5.97
2023-06-20T05:04:05.079Z,5.30
2023-06-20T05:06:32.211Z,5.53
2023-06-20T05:09:00.365Z,11.07
2023-06-20T05:11:31.070Z,6.83
2023-06-20T05:13:58.234Z,5.90
2023-06-20T05:16:25.261Z,4.67
2023-06-20T05:18:52.217Z,6.13
2023-06-20T05:21:19.059Z,5.47
2023-06-20T05:23:46.292Z,5.60
2023-06-20T05:26:13.552Z,5.53
2023-06-20T05:28:40.637Z,5.67
2023-06-20T05:31:10.552Z,6.47
2023-06-20T05:33:37.979Z,5.37
2023-06-20T05:36:05.956Z,7.43
2023-06-20T05:38:32.793Z,5.60
2023-06-20T05:41:00.778Z,5.60
2023-06-20T05:43:27.663Z,7.17
2023-06-20T05:45:54.496Z,7.10
2023-06-20T05:48:25.048Z,5.87
2023-06-20T05:50:55.507Z,6.13
2023-06-20T05:53:23.633Z,6.73
2023-06-20T05:55:53.706Z,6.17
2023-06-20T05:58:21.175Z,6.43
2023-06-20T06:00:52.009Z,6.30
2023-06-20T06:03:20.120Z,5.93
2023-06-20T06:05:47.241Z,6.33
2023-06-20T06:08:14.105Z,6.03
2023-06-20T06:10:40.930Z,5.23
2023-06-20T06:13:07.936Z,6.23
2023-06-20T06:15:35.007Z,5.40
2023-06-20T06:18:02.034Z,7.07
2023-06-20T06:20:30.534Z,5.50
2023-06-20T06:22:57.802Z,5.30
2023-06-20T06:25:25.760Z,5.43
2023-06-20T06:27:55.128Z,5.53
2023-06-20T06:30:23.341Z,5.17
2023-06-20T06:32:50.382Z,5.47
2023-06-20T06:35:19.761Z,6.47
2023-06-20T06:37:48.251Z,5.70
2023-06-20T06:40:15.373Z,5.03
2023-06-20T06:42:42.448Z,5.23
2023-06-20T06:45:09.996Z,5.57
2023-06-20T06:47:37.099Z,6.10
2023-06-20T06:50:04.252Z,6.00
2023-06-20T06:52:32.694Z,6.13
2023-06-20T06:54:59.570Z,5.50
2023-06-20T06:57:26.464Z,6.73
2023-06-20T06:59:53.721Z,6.87
2023-06-20T07:02:22.046Z,6.53
2023-06-20T07:04:49.068Z,6.40
2023-06-20T07:07:15.976Z,6.30
2023-06-20T07:09:42.878Z,7.33
2023-06-20T07:12:09.998Z,6.60
2023-06-20T07:14:37.221Z,6.90
2023-06-20T07:17:06.354Z,4.70
2023-06-20T07:19:33.908Z,5.60
2023-06-20T07:22:00.839Z,5.60
2023-06-20T07:24:27.778Z,5.30
2023-06-20T07:26:54.762Z,5.80
2023-06-20T07:29:22.449Z,5.53
2023-06-20T07:31:49.589Z,5.93
2023-06-20T07:34:16.429Z,5.33
2023-06-20T07:36:43.275Z,6.57
2023-06-20T07:39:10.308Z,6.30
2023-06-20T07:41:37.255Z,6.70
2023-06-20T07:44:05.964Z,5.33
2023-06-20T07:46:33.932Z,5.80
2023-06-20T07:49:00.929Z,4.93
2023-06-20T07:51:31.405Z,5.03
2023-06-20T07:53:58.306Z,5.40
2023-06-20T07:56:25.150Z,5.47
2023-06-20T07:58:52.431Z,6.18
2023-06-20T08:01:19.928Z,5.88
2023-06-20T08:03:46.960Z,6.57
2023-06-20T08:06:14.084Z,6.53
2023-06-20T08:08:40.953Z,6.57
2023-06-20T08:11:07.785Z,5.18
2023-06-20T08:13:34.636Z,4.93
2023-06-20T08:16:01.763Z,6.88
2023-06-20T08:18:28.690Z,5.82
2023-06-20T08:20:56.291Z,5.72
2023-06-20T08:23:27.857Z,5.00
2023-06-20T08:25:58.661Z,5.13
2023-06-20T08:28:26.800Z,6.10
2023-06-20T08:30:54.690Z,5.07
2023-06-20T08:33:22.708Z,4.63
2023-06-20T08:35:52.067Z,4.18
2023-06-20T08:38:19.014Z,3.90
2023-06-20T08:40:46.629Z,4.30
2023-06-20T08:43:17.400Z,4.25
2023-06-20T08:45:45.649Z,3.95
2023-06-20T08:48:12.983Z,3.58
2023-06-20T08:50:40.271Z,4.03
2023-06-20T08:53:11.076Z,4.55
2023-06-20T08:55:41.853Z,4.20
2023-06-20T08:58:10.221Z,3.58
2023-06-20T09:00:39.684Z,3.95
2023-06-20T09:03:07.169Z,3.90
2023-06-20T09:05:46.707Z,4.22
2023-06-20T09:08:17.393Z,4.68
2023-06-20T09:10:46.276Z,4.35
2023-06-20T09:13:14.356Z,4.78
2023-06-20T09:15:42.183Z,4.28
2023-06-20T09:18:15.405Z,4.38
2023-06-20T09:20:44.406Z,5.53
2023-06-20T09:23:12.532Z,4.30
2023-06-20T09:25:40.941Z,4.45
2023-06-20T09:28:16.826Z,4.75
2023-06-20T09:30:46.292Z,4.68
2023-06-20T09:33:15.290Z,4.20
2023-06-20T09:35:42.719Z,3.90
2023-06-20T09:38:10.397Z,4.25
2023-06-20T09:40:46.136Z,5.97
2023-06-20T09:43:13.276Z,4.20
2023-06-20T09:45:40.381Z,3.92
2023-06-20T09:48:10.432Z,3.55
2023-06-20T09:50:40.387Z,4.00
2023-06-20T09:53:45.506Z,4.07
2023-06-20T09:56:15.363Z,5.47
2023-06-20T09:58:48.424Z,3.15
2023-06-20T10:01:17.173Z,3.60
2023-06-20T10:03:45.215Z,3.45
2023-06-20T10:06:12.616Z,4.75
2023-06-20T10:08:42.075Z,3.72
2023-06-20T10:11:09.165Z,3.95
2023-06-20T10:13:37.093Z,3.63
2023-06-20T10:16:05.753Z,5.40
2023-06-20T10:18:32.648Z,3.35
2023-06-20T10:21:03.869Z,3.83
2023-06-20T10:23:40.531Z,3.40
2023-06-20T10:26:09.896Z,2.95
2023-06-20T10:28:42.442Z,3.95
2023-06-20T10:31:09.383Z,3.72
2023-06-20T10:33:38.707Z,3.60
2023-06-20T10:36:13.875Z,3.10
2023-06-20T10:39:01.066Z,2.88
2023-06-20T10:41:29.864Z,2.80
2023-06-20T10:44:01.888Z,2.70
2023-06-20T10:46:38.218Z,2.58
2023-06-20T10:49:07.295Z,4.00
2023-06-20T10:51:50.250Z,2.97
2023-06-20T10:54:19.153Z,9.70
2023-06-20T10:56:47.596Z,2.95
2023-06-20T10:59:17.750Z,2.78
2023-06-20T11:01:45.287Z,3.15
2023-06-20T11:04:16.000Z,2.83
2023-06-20T11:06:43.658Z,3.45
2023-06-20T11:09:26.219Z,2.65
2023-06-20T11:11:53.197Z,3.03
2023-06-20T11:14:22.915Z,3.45
2023-06-20T11:16:51.895Z,2.70
2023-06-20T11:21:55.051Z,3.55
2023-06-20T11:24:22.387Z,3.83
2023-06-20T11:26:49.411Z,2.50
2023-06-20T11:29:16.921Z,2.50
2023-06-20T11:31:44.724Z,2.53
2023-06-20T11:34:13.986Z,2.97
2023-06-20T11:36:41.779Z,3.08
2023-06-20T11:39:14.581Z,3.13
2023-06-20T11:41:41.829Z,2.58
2023-06-20T11:44:25.322Z,3.08
2023-06-20T11:46:52.412Z,2.97
2023-06-20T11:49:33.732Z,2.60
2023-06-20T11:52:02.376Z,2.53
2023-06-20T11:54:29.295Z,2.63
2023-06-20T11:56:56.294Z,2.95
2023-06-20T11:59:26.555Z,2.67
2023-06-20T12:01:53.884Z,3.35
2023-06-20T12:04:23.193Z,2.58
2023-06-20T12:06:54.232Z,2.55
2023-06-20T12:09:24.987Z,2.70
2023-06-20T12:11:56.577Z,2.60
2023-06-20T12:14:26.205Z,2.72
2023-06-20T12:16:53.767Z,4.35
2023-06-20T12:19:21.402Z,2.42
2023-06-20T12:21:48.645Z,2.25
2023-06-20T12:24:19.129Z,2.20
2023-06-20T12:26:48.326Z,2.40
2023-06-20T12:29:15.475Z,2.33
2023-06-20T12:31:42.388Z,2.58
2023-06-20T12:34:09.262Z,2.70
2023-06-20T12:36:36.585Z,3.22
2023-06-20T12:39:04.635Z,2.72
2023-06-20T12:41:36.480Z,2.60
2023-06-20T12:44:04.616Z,2.80
2023-06-20T12:46:31.733Z,2.60
2023-06-20T12:48:59.453Z,5.40
2023-06-20T12:51:26.553Z,1.70
2023-06-20T12:53:53.714Z,2.72
2023-06-20T12:56:21.305Z,2.65
2023-06-20T12:58:48.220Z,2.10
2023-06-20T13:01:15.276Z,3.63
2023-06-20T13:03:42.355Z,5.43
2023-06-20T13:06:11.381Z,2.80
2023-06-20T13:08:40.553Z,2.78
2023-06-20T13:11:07.648Z,3.13
2023-06-20T13:13:35.632Z,2.85
2023-06-20T13:16:02.788Z,2.35
2023-06-20T13:18:30.084Z,2.17
2023-06-20T13:20:57.600Z,2.22
2023-06-20T13:23:24.843Z,4.22
2023-06-20T13:25:51.851Z,2.20
2023-06-20T13:28:18.782Z,2.63
2023-06-20T13:30:45.944Z,2.97
2023-06-20T13:33:12.881Z,2.85
2023-06-20T13:35:40.100Z,3.35
2023-06-20T13:38:07.979Z,2.92
2023-06-20T13:40:36.339Z,2.67
2023-06-20T13:43:07.506Z,3.60
2023-06-20T13:45:34.858Z,3.08
2023-06-20T13:48:02.470Z,3.15
2023-06-20T13:50:29.891Z,2.78
2023-06-20T13:52:57.076Z,3.03
2023-06-20T13:55:24.264Z,2.60
2023-06-20T13:57:51.876Z,2.60
2023-06-20T14:00:18.990Z,2.55
2023-06-20T14:02:47.592Z,2.50
2023-06-20T14:05:17.263Z,3.30
2023-06-20T14:07:46.435Z,2.30
2023-06-20T14:10:13.323Z,2.50
2023-06-20T14:12:40.251Z,3.45
2023-06-20T14:15:09.113Z,2.30
2023-06-20T14:17:36.343Z,2.15
2023-06-20T14:20:08.437Z,2.33
2023-06-20T14:22:35.693Z,2.38
2023-06-20T14:25:02.628Z,2.47
2023-06-20T14:27:29.580Z,2.72
2023-06-20T14:29:58.486Z,3.55
2023-06-20T14:32:25.517Z,3.08
2023-06-20T14:34:52.864Z,2.45
2023-06-20T14:37:20.801Z,2.70
2023-06-20T14:39:48.316Z,2.28
2023-06-20T14:42:15.330Z,2.00
2023-06-20T14:44:42.269Z,2.50
2023-06-20T14:47:09.238Z,2.35
2023-06-20T14:49:36.435Z,2.88
2023-06-20T14:52:03.865Z,5.05
2023-06-20T14:54:30.789Z,2.40
2023-06-20T14:56:57.632Z,2.63
2023-06-20T14:59:26.531Z,2.55
2023-06-20T15:01:54.053Z,2.67
2023-06-20T15:04:21.061Z,2.70
2023-06-20T15:06:48.199Z,2.63
2023-06-20T15:09:16.175Z,2.30
2023-06-20T15:11:46.089Z,4.43
2023-06-20T15:14:12.959Z,3.28
2023-06-20T15:16:40.342Z,4.00
2023-06-20T15:19:07.200Z,2.40
2023-06-20T15:21:34.264Z,2.42
2023-06-20T15:24:01.139Z,2.45
2023-06-20T15:26:29.666Z,3.17
2023-06-20T15:28:56.546Z,2.70
2023-06-20T15:31:23.564Z,3.45
2023-06-20T15:33:50.616Z,3.10
2023-06-20T15:36:17.579Z,3.28
2023-06-20T15:38:44.484Z,3.33
2023-06-20T15:41:11.390Z,2.58
2023-06-20T15:43:39.829Z,3.47
2023-06-20T15:46:09.353Z,3.15
2023-06-20T15:48:55.632Z,3.17
2023-06-20T15:51:23.792Z,3.70
2023-06-20T15:53:51.116Z,3.97
2023-06-20T15:56:18.102Z,3.88
2023-06-20T15:58:45.681Z,3.08
2023-06-20T16:01:13.820Z,3.92
2023-06-20T16:03:40.904Z,3.40
2023-06-20T16:06:07.912Z,3.10
2023-06-20T16:08:35.073Z,4.20
2023-06-20T16:11:02.496Z,4.78
2023-06-20T16:13:31.261Z,4.13
2023-06-20T16:15:58.185Z,3.47
2023-06-20T16:18:25.358Z,3.70
2023-06-20T16:20:52.245Z,3.67
2023-06-20T16:23:20.374Z,3.58
2023-06-20T16:25:47.349Z,3.45
2023-06-20T16:28:14.624Z,7.38
2023-06-20T16:30:41.888Z,3.97
2023-06-20T16:33:10.562Z,3.88
2023-06-20T16:35:37.602Z,3.53
2023-06-20T16:38:04.473Z,4.00
2023-06-20T16:40:31.327Z,4.00
2023-06-20T16:42:58.204Z,4.20
2023-06-20T16:45:25.156Z,3.70
2023-06-20T16:47:52.298Z,3.67
2023-06-20T16:50:20.502Z,4.72
2023-06-20T16:52:47.395Z,3.80
2023-06-20T16:55:14.551Z,3.67
2023-06-20T16:57:41.609Z,4.05
2023-06-20T17:00:09.460Z,4.10
2023-06-20T17:02:36.419Z,5.45
2023-06-20T17:05:03.399Z,3.33
2023-06-20T17:07:30.504Z,3.97
2023-06-20T17:09:57.317Z,5.78
2023-06-20T17:12:24.218Z,3.97
2023-06-20T17:14:51.072Z,4.15
2023-06-20T17:17:18.019Z,3.95
2023-06-20T17:19:44.904Z,4.22
2023-06-20T17:22:12.246Z,4.38
2023-06-20T17:24:43.375Z,3.97
2023-06-20T17:27:13.631Z,3.75
2023-06-20T17:29:41.680Z,4.07
2023-06-20T17:32:09.694Z,4.38
2023-06-20T17:34:36.556Z,4.03
2023-06-20T17:37:04.223Z,4.20
2023-06-20T17:39:31.324Z,4.25
2023-06-20T17:41:58.885Z,4.30
2023-06-20T17:44:25.708Z,4.20
2023-06-20T17:46:57.019Z,3.75
2023-06-20T17:49:24.449Z,4.53
2023-06-20T17:51:51.300Z,5.60
2023-06-20T17:54:18.274Z,4.15
2023-06-20T17:56:46.517Z,4.07
2023-06-20T17:59:14.578Z,4.47
2023-06-20T18:01:41.578Z,4.43
2023-06-20T18:04:12.820Z,3.92
2023-06-20T18:06:40.614Z,4.78
2023-06-20T18:09:08.191Z,4.43
2023-06-20T18:11:35.109Z,10.18
2023-06-20T18:14:02.126Z,5.30
2023-06-20T18:16:29.295Z,5.05
2023-06-20T18:18:56.437Z,6.50
2023-06-20T18:21:23.281Z,4.45
2023-06-20T18:23:50.191Z,4.65
2023-06-20T18:26:17.286Z,4.38
2023-06-20T18:28:44.138Z,4.35
2023-06-20T18:31:11.195Z,4.03
2023-06-20T18:33:39.700Z,4.97
2023-06-20T18:36:07.986Z,5.93
2023-06-20T18:38:35.018Z,4.20
2023-06-20T18:41:01.909Z,4.45
2023-06-20T18:43:28.769Z,4.55
2023-06-20T18:45:56.654Z,4.80
2023-06-20T18:48:23.552Z,4.05
2023-06-20T18:50:51.997Z,3.60
2023-06-20T18:53:19.727Z,6.80
2023-06-20T18:55:47.192Z,4.30
2023-06-20T18:58:14.077Z,4.75
2023-06-20T19:00:40.952Z,7.90
2023-06-20T19:03:12.219Z,4.05
2023-06-20T19:05:39.564Z,4.18
2023-06-20T19:08:07.612Z,5.00
2023-06-20T19:10:34.992Z,4.50
2023-06-20T19:13:03.682Z,4.97
2023-06-20T19:15:30.618Z,6.95
2023-06-20T19:17:57.823Z,4.95
2023-06-20T19:20:26.563Z,4.68
2023-06-20T19:22:56.282Z,4.90
2023-06-20T19:25:23.284Z,4.88
2023-06-20T19:27:50.280Z,6.22
2023-06-20T19:30:18.345Z,7.90
2023-06-20T19:32:45.725Z,4.78
2023-06-20T19:35:12.704Z,5.07
2023-06-20T19:37:39.788Z,5.25
2023-06-20T19:40:08.787Z,6.22
2023-06-20T19:42:36.164Z,4.82
2023-06-20T19:45:04.428Z,5.25
2023-06-20T19:47:31.377Z,5.38
2023-06-20T19:49:58.578Z,7.57
2023-06-20T19:52:25.510Z,5.40
2023-06-20T19:54:52.364Z,5.72
2023-06-20T19:57:19.254Z,4.65
2023-06-20T19:59:46.492Z,6.28
2023-06-20T20:02:22.505Z,8.10
2023-06-20T20:04:49.614Z,4.53
2023-06-20T20:07:16.733Z,5.07
2023-06-20T20:09:45.386Z,5.63
2023-06-20T20:12:13.368Z,5.22
2023-06-20T20:14:40.470Z,5.65
2023-06-20T20:17:07.712Z,5.13
2023-06-20T20:19:34.556Z,5.18
2023-06-20T20:22:01.493Z,6.22
2023-06-20T20:24:28.441Z,6.00
2023-06-20T20:26:55.383Z,4.72
2023-06-20T20:29:23.507Z,5.05
2023-06-20T20:31:51.341Z,6.38
2023-06-20T20:34:18.628Z,8.23
2023-06-20T20:36:45.510Z,5.03
2023-06-20T20:39:15.394Z,4.88
2023-06-20T20:41:43.115Z,5.68
2023-06-20T20:44:10.585Z,6.45
2023-06-20T20:46:37.500Z,4.60
2023-06-20T20:49:04.770Z,5.82
2023-06-20T20:51:33.578Z,6.38
2023-06-20T20:54:00.888Z,5.35
2023-06-20T20:56:27.769Z,5.25
2023-06-20T20:58:55.242Z,4.68
2023-06-20T21:01:22.385Z,5.53
2023-06-20T21:03:50.215Z,5.38
2023-06-20T21:06:17.557Z,5.97
2023-06-20T21:08:44.449Z,4.80
2023-06-20T21:11:11.603Z,5.68
2023-06-20T21:13:38.567Z,6.00
2023-06-20T21:16:05.501Z,5.53
2023-06-20T21:18:32.382Z,4.78
2023-06-20T21:20:59.288Z,7.30
2023-06-20T21:23:26.273Z,5.45
2023-06-20T21:25:53.166Z,8.35
2023-06-20T21:28:20.038Z,6.13
2023-06-20T21:30:46.951Z,6.45
2023-06-20T21:33:13.965Z,7.57
2023-06-20T21:35:42.761Z,5.82
2023-06-20T21:38:11.139Z,5.70
2023-06-20T21:40:38.054Z,5.97
2023-06-20T21:43:05.197Z,5.40
2023-06-20T21:45:32.072Z,5.82
2023-06-20T21:47:59.030Z,5.35
2023-06-20T21:50:26.522Z,5.95
2023-06-20T21:52:53.724Z,5.95
2023-06-20T21:55:20.809Z,6.67
2023-06-20T21:57:47.875Z,6.38
2023-06-20T22:00:15.937Z,5.97
2023-06-20T22:02:43.033Z,7.18
2023-06-20T22:05:10.690Z,5.10
2023-06-20T22:07:37.811Z,6.43
2023-06-20T22:10:06.491Z,7.88
2023-06-20T22:12:34.130Z,8.47
2023-06-20T22:15:02.536Z,8.98
2023-06-20T22:17:30.868Z,7.53
2023-06-20T22:19:57.846Z,7.70
2023-06-20T22:22:24.755Z,8.30
2023-06-20T22:24:51.708Z,8.30
2023-06-20T22:27:19.019Z,8.57
2023-06-20T22:29:45.961Z,6.23
2023-06-20T22:32:13.095Z,7.50
2023-06-20T22:34:40.057Z,8.07
2023-06-20T22:37:07.091Z,8.48
2023-06-20T22:39:34.029Z,7.90
2023-06-20T22:42:01.087Z,11.90
2023-06-20T22:44:28.352Z,7.97
2023-06-20T22:46:58.359Z,7.40
2023-06-20T22:49:25.641Z,7.13
2023-06-20T22:51:53.347Z,8.00
2023-06-20T22:54:23.071Z,8.47
2023-06-20T22:56:51.051Z,8.33
2023-06-20T22:59:20.940Z,6.60
2023-06-20T23:01:48.636Z,6.93
2023-06-20T23:04:15.863Z,6.40
2023-06-20T23:06:42.805Z,5.97
2023-06-20T23:09:09.676Z,6.07
2023-06-20T23:11:37.118Z,5.27
2023-06-20T23:14:05.241Z,5.07
2023-06-20T23:16:32.806Z,4.30
2023-06-20T23:18:59.783Z,5.37
2023-06-20T23:21:26.836Z,3.73
2023-06-20T23:23:54.103Z,5.03
2023-06-20T23:26:22.997Z,4.40
2023-06-20T23:28:51.265Z,4.43
2023-06-20T23:31:19.373Z,3.93
2023-06-20T23:33:46.383Z,4.57
2023-06-20T23:40:42.030Z,6.07
2023-06-20T23:43:09.444Z,5.13
2023-06-20T23:45:36.410Z,4.97
2023-06-20T23:48:03.519Z,5.23
2023-06-20T23:50:30.730Z,4.87
2023-06-20T23:52:57.783Z,8.53
2023-06-20T23:55:24.611Z,3.63
2023-06-20T23:57:51.459Z,3.60
